Brushy, Illinois
Current Conditions -  °F | °C
As of 5:15 AM on Sunday 23 Nov 2014 (Local Time) from KHSB Reporting Station
Clear Clear  
Wind Chill: 46°   Ceiling: Unl
Heat Index: 48°   Visibility: 10mi
Dew Point: 44°   Wind: 6mph
Humidity: 84%   Direction: 120°ESE
Pressure: 29.85"   Gusts: NA
Location:  37.8301°N, 88.6284°W
Report Text: KHSB 231115Z AUTO 12005KT 10SM CLR 09/07 A2985 RMK AO2 T00900065
Loading
Personal Weather Stations






























Interactive Weather Map New forecast layout! Learn more

10-Day Weather Forecast

Advertisements
Track Severe Weather on mobile